EDDB Airport Information

Runway Information
Runway 07L Length 8891 ft width 148 ft
Elevation 148 ft Threshold 0 ft Heading 69
Runway 25R Length 8891 ft Width 148 ft
Elevation 145 ft Threshold 0 ft Heading 249
Runway 07R Length 9843 ft width 148 ft
Elevation 146 ft Threshold 0 ft Heading 69
Runway 25L Length 9843 ft Width 148 ft
Elevation 155 ft Threshold 0 ft Heading 249
Airport Frequencies
Type AFIS Name BERLIN INF Frequency 132.65 MHZ
Type APP Name BERLIN ARR Frequency 119.625 MHZ
Type ATIS Name ATIS Frequency 124.95 MHZ
Type DEP Name BERLIN DEP Frequency 120.625 MHZ
Type DIR Name BERLIN DIR Frequency 136.1 MHZ
Type GND Name GND Frequency 121.6 MHZ
Type INFO Name INFO Frequency 122.7 MHZ
Type TWR Name TWR Frequency 120.025 MHZ
Airport Navaids
Type DME Name Schonefeld Frequency 114400 KHZ
Type NDB Name Schonefeld Frequency 362 KHZ
Airport Weather Information & NOTAM
ADDS - METARS form results

(1518 UTC 14 October 2019)
Data provider http://aviationweather.gov/metar/data/
 
METAR text: EDDB 141450Z 06006KT CAVOK 22/15 Q1014 NOSIG
Conditions at: EDDB (BERLIN/SCHONEFEL, DE) observed 1450 UTC 14 October 2019
Temperature: 22.0°C (72°F)
Dewpoint: 15.0°C (59°F) [RH = 65%]
Pressure (altimeter): 29.94 inches Hg (1014.0 mb)
Winds: from the ENE (60 degrees) at 7 MPH (6 knots; 3.1 m/s)
Visibility: 6 or more miles (10+ km)
Ceiling: ceiling and visibility are OK
Clouds: unknown
Weather: no significant weather observed at this time

METAR text: EDDB 141420Z 07003KT 010V130 CAVOK 23/15 Q1014 NOSIG
Conditions at: EDDB (BERLIN/SCHONEFEL, DE) observed 1420 UTC 14 October 2019
Temperature: 23.0°C (73°F)
Dewpoint: 15.0°C (59°F) [RH = 61%]
Pressure (altimeter): 29.94 inches Hg (1014.0 mb)
Winds: from the ENE (70 degrees) at 3 MPH (3 knots; 1.5 m/s)
Visibility: 6 or more miles (10+ km)
Ceiling: ceiling and visibility are OK
Clouds: unknown
Weather: no significant weather observed at this time

Forecast for: EDDB (BERLIN/SCHONEFEL, DE)
Text: TAF EDDB 141100Z 1412/1512 10006KT CAVOK
Forecast period: 1200 UTC 14 October 2019 to 1200 UTC 15 October 2019
Forecast type: FROM: standard forecast or significant change
Winds: from the E (100 degrees) at 7 MPH (6 knots; 3.1 m/s)
Visibility: 6 or more miles 10+ km)
Ceiling: unknown
Clouds: missing
Weather: NSW  (no significant weather)